createdAt,value
2022-08-16T00:01:04.340Z,14.10
2022-08-16T00:03:37.706Z,14.20
2022-08-16T00:06:04.792Z,14.10
2022-08-16T00:08:36.751Z,14.10
2022-08-16T00:11:04.351Z,13.80
2022-08-16T00:13:33.088Z,13.80
2022-08-16T00:17:05.595Z,14.00
2022-08-16T00:18:56.947Z,14.10
2022-08-16T00:21:25.566Z,13.90
2022-08-16T00:23:56.074Z,13.90
2022-08-16T00:26:34.791Z,13.80
2022-08-16T00:29:05.522Z,13.80
2022-08-16T00:31:59.820Z,13.80
2022-08-16T00:34:22.079Z,13.90
2022-08-16T00:37:08.808Z,14.20
2022-08-16T00:39:36.111Z,14.40
2022-08-16T00:42:03.244Z,14.40
2022-08-16T00:44:32.583Z,14.60
2022-08-16T00:47:06.172Z,14.70
2022-08-16T00:49:39.747Z,14.60
2022-08-16T00:52:30.216Z,14.60
2022-08-16T00:54:57.666Z,14.50
2022-08-16T00:57:24.378Z,14.50
2022-08-16T00:59:58.902Z,14.50
2022-08-16T01:02:31.670Z,14.50
2022-08-16T01:05:10.325Z,14.40
2022-08-16T01:07:50.783Z,14.30
2022-08-16T01:10:19.169Z,14.30
2022-08-16T01:12:46.250Z,14.30
2022-08-16T01:15:15.336Z,14.40
2022-08-16T01:17:43.063Z,14.50
2022-08-16T01:20:24.022Z,14.50
2022-08-16T01:22:54.161Z,14.50
2022-08-16T01:25:34.515Z,14.60
2022-08-16T01:28:05.145Z,14.60
2022-08-16T01:30:33.758Z,14.60
2022-08-16T01:33:15.046Z,14.50
2022-08-16T01:35:47.294Z,14.50
2022-08-16T01:38:21.464Z,14.50
2022-08-16T01:40:54.657Z,14.50
2022-08-16T01:43:23.532Z,14.50
2022-08-16T01:45:57.608Z,14.50
2022-08-16T01:48:27.519Z,14.60
2022-08-16T01:51:09.391Z,14.60
2022-08-16T01:53:41.325Z,14.40
2022-08-16T01:56:26.547Z,14.40
2022-08-16T01:58:56.167Z,14.30
2022-08-16T02:01:24.969Z,14.30
2022-08-16T02:03:53.148Z,14.20
2022-08-16T02:06:34.497Z,14.20
2022-08-16T02:09:05.185Z,14.10
2022-08-16T02:11:47.614Z,14.10
2022-08-16T02:14:17.931Z,14.00
2022-08-16T02:16:45.890Z,13.80
2022-08-16T02:19:16.244Z,13.70
2022-08-16T02:22:07.814Z,13.70
2022-08-16T02:24:32.672Z,13.70
2022-08-16T02:27:08.627Z,13.70
2022-08-16T02:29:35.514Z,13.60
2022-08-16T02:32:04.419Z,13.50
2022-08-16T02:34:50.291Z,13.50
2022-08-16T02:37:20.934Z,13.40
2022-08-16T02:39:54.024Z,13.40
2022-08-16T02:42:22.038Z,13.40
2022-08-16T02:44:48.871Z,13.40
2022-08-16T02:47:25.557Z,13.40
2022-08-16T02:50:52.210Z,13.40
2022-08-16T02:52:43.744Z,13.40
2022-08-16T02:55:11.542Z,13.40
2022-08-16T02:57:54.380Z,13.40
2022-08-16T03:00:34.195Z,13.60
2022-08-16T03:03:03.470Z,13.80
2022-08-16T03:05:31.091Z,13.70
2022-08-16T03:08:00.527Z,13.70
2022-08-16T03:10:33.503Z,13.70
2022-08-16T03:13:03.337Z,13.70
2022-08-16T03:15:31.121Z,13.70
2022-08-16T03:18:00.108Z,13.70
2022-08-16T03:20:32.118Z,13.70
2022-08-16T03:23:01.906Z,13.70
2022-08-16T03:25:43.132Z,13.70
2022-08-16T03:28:13.366Z,13.70
2022-08-16T03:30:44.264Z,13.80
2022-08-16T03:33:11.950Z,13.80
2022-08-16T03:35:49.033Z,13.80
2022-08-16T03:38:32.544Z,13.80
2022-08-16T03:41:05.123Z,13.80
2022-08-16T03:43:51.149Z,13.70
2022-08-16T03:46:47.959Z,13.60
2022-08-16T03:49:10.840Z,13.60
2022-08-16T03:51:39.578Z,13.50
2022-08-16T03:54:12.617Z,13.50
2022-08-16T03:56:57.205Z,13.50
2022-08-16T03:59:30.414Z,13.40
2022-08-16T04:02:19.130Z,13.40
2022-08-16T04:04:50.165Z,13.40
2022-08-16T04:07:16.991Z,13.40
2022-08-16T04:09:46.419Z,13.50
2022-08-16T04:12:54.376Z,13.60
2022-08-16T04:15:02.327Z,13.60
2022-08-16T04:17:30.537Z,13.60
2022-08-16T04:19:58.164Z,13.70
2022-08-16T04:22:27.686Z,13.80
2022-08-16T04:24:59.462Z,13.90
2022-08-16T04:27:32.030Z,13.90
2022-08-16T04:30:02.823Z,14.00
2022-08-16T04:32:33.041Z,14.00
2022-08-16T04:35:07.594Z,14.00
2022-08-16T04:37:42.161Z,14.00
2022-08-16T04:40:21.504Z,14.10
2022-08-16T04:42:52.820Z,14.10
2022-08-16T04:45:35.606Z,14.10
2022-08-16T04:48:12.541Z,13.90
2022-08-16T04:50:58.568Z,14.00
2022-08-16T04:53:36.550Z,14.00
2022-08-16T04:56:11.143Z,14.00
2022-08-16T04:58:45.891Z,14.10
2022-08-16T05:01:17.063Z,14.20
2022-08-16T05:04:00.597Z,14.50
2022-08-16T05:06:45.125Z,14.60
2022-08-16T05:09:22.967Z,14.70
2022-08-16T05:11:51.472Z,14.90
2022-08-16T05:14:20.181Z,15.10
2022-08-16T05:17:05.546Z,15.20
2022-08-16T05:19:36.046Z,15.30
2022-08-16T05:22:18.058Z,15.40
2022-08-16T05:24:47.361Z,15.60
2022-08-16T05:27:14.107Z,15.60
2022-08-16T05:30:01.004Z,15.70
2022-08-16T05:32:45.638Z,15.80
2022-08-16T05:35:14.983Z,15.90
2022-08-16T05:38:30.991Z,16.00
2022-08-16T05:41:02.762Z,16.20
2022-08-16T05:43:43.377Z,16.40
2022-08-16T05:46:29.580Z,16.60
2022-08-16T05:49:08.636Z,16.80
2022-08-16T05:51:40.295Z,17.00
2022-08-16T05:54:09.787Z,17.10
2022-08-16T05:56:38.603Z,17.40
2022-08-16T13:34:17.949Z,30.00
2022-08-16T13:36:49.353Z,29.50
2022-08-16T13:39:19.127Z,29.50
2022-08-16T13:41:53.849Z,29.60
2022-08-16T13:44:21.560Z,30.00
2022-08-16T13:46:49.218Z,30.30
2022-08-16T13:49:18.346Z,30.10
2022-08-16T13:51:47.425Z,29.70
2022-08-16T13:54:14.132Z,29.80
2022-08-16T13:56:41.155Z,29.70
2022-08-16T13:59:19.377Z,29.00
2022-08-16T14:01:47.120Z,28.60
2022-08-16T14:04:26.389Z,29.10
2022-08-16T14:06:54.968Z,29.40
2022-08-16T14:09:23.947Z,29.00
2022-08-16T14:11:53.416Z,28.60
2022-08-16T14:14:28.684Z,28.20
2022-08-16T14:16:57.087Z,27.80
2022-08-16T14:19:24.590Z,27.70
2022-08-16T14:21:56.579Z,28.50
2022-08-16T14:24:30.089Z,29.10
2022-08-16T14:26:57.304Z,29.50
2022-08-16T14:29:24.052Z,29.60
2022-08-16T14:31:55.779Z,29.80
2022-08-16T14:34:25.621Z,30.00
2022-08-16T14:36:58.024Z,29.80
2022-08-16T14:39:26.575Z,29.60
2022-08-16T14:41:55.944Z,30.30
2022-08-16T14:44:23.282Z,32.30
2022-08-16T14:46:50.004Z,34.20
2022-08-16T14:49:19.529Z,34.00
2022-08-16T14:51:48.078Z,33.90
2022-08-16T14:54:15.877Z,34.40
2022-08-16T14:56:46.959Z,35.20
2022-08-16T14:59:21.972Z,36.30
2022-08-16T15:01:58.921Z,37.30
2022-08-16T15:04:39.585Z,35.60
2022-08-16T15:07:10.174Z,33.60
2022-08-16T15:09:44.266Z,32.30
2022-08-16T15:12:31.008Z,33.10
2022-08-16T15:15:01.635Z,33.20
2022-08-16T15:17:33.871Z,31.40
2022-08-16T15:20:08.703Z,30.50
2022-08-16T15:22:38.130Z,33.80
2022-08-16T15:25:08.362Z,35.50
2022-08-16T15:27:41.189Z,36.60
2022-08-16T15:30:57.907Z,36.30
2022-08-16T15:33:00.277Z,38.30
2022-08-16T15:35:27.159Z,39.40
2022-08-16T15:37:56.995Z,38.70
2022-08-16T15:40:32.293Z,37.50
2022-08-16T15:43:04.053Z,38.20
2022-08-16T15:45:55.793Z,34.50
2022-08-16T15:51:08.775Z,31.10
2022-08-16T15:53:37.701Z,30.20
2022-08-16T15:56:08.860Z,29.00
2022-08-16T15:58:38.932Z,28.20
2022-08-16T16:01:06.039Z,27.70
2022-08-16T16:03:34.747Z,27.50
2022-08-16T16:06:02.990Z,28.00
2022-08-16T16:08:31.488Z,27.70
2022-08-16T16:10:59.123Z,27.40
2022-08-16T16:13:25.998Z,27.20
2022-08-16T16:15:53.770Z,26.90
2022-08-16T16:18:21.218Z,26.70
2022-08-16T16:20:49.019Z,26.50
2022-08-16T16:23:17.164Z,26.30
2022-08-16T16:25:44.876Z,26.20
2022-08-16T16:29:05.765Z,26.10
2022-08-16T16:30:59.706Z,25.90
2022-08-16T16:33:27.868Z,25.70
2022-08-16T16:35:57.203Z,25.60
2022-08-16T16:38:25.296Z,25.50
2022-08-16T16:40:54.595Z,25.40
2022-08-16T16:43:25.487Z,25.40
2022-08-16T16:45:57.624Z,25.30
2022-08-16T16:48:34.512Z,25.40
2022-08-16T16:51:08.428Z,25.80
2022-08-16T16:53:37.576Z,26.70
2022-08-16T16:56:08.657Z,26.50
2022-08-16T16:58:54.342Z,26.20
2022-08-16T17:01:24.124Z,25.90
2022-08-16T17:04:19.309Z,25.60
2022-08-16T17:06:57.064Z,25.60
2022-08-16T17:09:24.689Z,27.00
2022-08-16T17:11:55.171Z,28.30
2022-08-16T17:14:31.978Z,28.90
2022-08-16T17:16:59.525Z,28.70
2022-08-16T17:19:31.636Z,28.70
2022-08-16T17:21:58.808Z,28.40
2022-08-16T17:24:31.174Z,28.00
2022-08-16T17:27:07.005Z,27.70
2022-08-16T17:29:33.806Z,27.00
2022-08-16T17:32:34.243Z,26.60
2022-08-16T17:34:50.765Z,26.30
2022-08-16T17:37:17.700Z,26.00
2022-08-16T17:40:00.260Z,25.60
2022-08-16T17:42:33.864Z,25.30
2022-08-16T17:45:00.816Z,24.90
2022-08-16T17:47:27.735Z,24.50
2022-08-16T17:49:54.529Z,24.40
2022-08-16T17:52:21.326Z,24.20
2022-08-16T17:54:48.045Z,23.90
2022-08-16T17:57:17.082Z,23.80
2022-08-16T17:59:44.514Z,23.70
2022-08-16T18:02:42.154Z,23.50
2022-08-16T18:04:58.513Z,23.40
2022-08-16T18:07:25.525Z,23.20
2022-08-16T18:09:52.589Z,22.90
2022-08-16T18:12:50.991Z,22.60
2022-08-16T18:15:10.680Z,22.30
2022-08-16T18:17:37.504Z,22.10
2022-08-16T18:20:04.563Z,21.90
2022-08-16T18:22:31.587Z,21.70
2022-08-16T18:24:58.303Z,21.50
2022-08-16T18:27:27.237Z,21.50
2022-08-16T18:29:54.706Z,21.40
2022-08-16T18:32:25.057Z,21.30
2022-08-16T18:34:52.561Z,21.00
2022-08-16T18:37:21.191Z,20.80
2022-08-16T18:39:47.965Z,20.70
2022-08-16T18:42:15.174Z,20.60
2022-08-16T18:44:43.106Z,20.50
2022-08-16T18:47:09.904Z,20.40
2022-08-16T18:49:37.305Z,20.40
2022-08-16T18:52:04.520Z,20.20
2022-08-16T18:54:32.755Z,20.00
2022-08-16T18:56:59.462Z,20.10
2022-08-16T18:59:27.328Z,20.00
2022-08-16T19:01:54.187Z,19.90
2022-08-16T19:04:50.541Z,19.80
2022-08-16T19:07:14.950Z,19.70
2022-08-16T19:09:41.649Z,19.60
2022-08-16T19:12:08.612Z,19.60
2022-08-16T19:14:35.346Z,19.60
2022-08-16T19:17:02.249Z,19.70
2022-08-16T19:19:28.942Z,19.80
2022-08-16T19:21:56.504Z,19.80
2022-08-16T19:24:23.868Z,19.80
2022-08-16T19:26:56.133Z,19.80
2022-08-16T19:29:23.872Z,19.90
2022-08-16T19:31:51.044Z,19.80
2022-08-16T19:34:18.041Z,19.90
2022-08-16T19:36:44.810Z,19.90
2022-08-16T19:39:12.930Z,19.90
2022-08-16T19:41:41.360Z,19.90
2022-08-16T19:44:08.302Z,19.90
2022-08-16T19:46:35.297Z,19.90
2022-08-16T19:49:02.452Z,19.80
2022-08-16T19:51:29.468Z,19.80
2022-08-16T19:53:56.144Z,19.70
2022-08-16T19:56:24.931Z,19.70
2022-08-16T19:59:17.373Z,19.60
2022-08-16T20:01:42.214Z,19.50
2022-08-16T20:04:11.220Z,19.50
2022-08-16T20:06:38.915Z,19.50
2022-08-16T20:09:06.151Z,19.50
2022-08-16T20:11:33.531Z,19.50
2022-08-16T20:14:00.933Z,19.50
2022-08-16T20:16:27.958Z,19.50
2022-08-16T20:18:54.779Z,19.40
2022-08-16T20:21:21.532Z,19.30
2022-08-16T20:23:48.215Z,19.30
2022-08-16T20:26:15.220Z,19.20
2022-08-16T20:28:54.271Z,19.30
2022-08-16T20:31:22.960Z,19.30
2022-08-16T20:33:49.814Z,19.20
2022-08-16T20:36:16.846Z,19.20
2022-08-16T20:38:46.015Z,19.30
2022-08-16T20:43:57.730Z,19.30
2022-08-16T20:46:26.763Z,19.40
2022-08-16T20:48:53.503Z,19.40
2022-08-16T20:51:20.296Z,19.40
2022-08-16T20:53:47.020Z,19.30
2022-08-16T20:56:13.716Z,19.40
2022-08-16T20:58:40.638Z,19.40
2022-08-16T21:01:08.415Z,19.40
2022-08-16T21:03:36.130Z,19.50
2022-08-16T21:06:03.621Z,19.50
2022-08-16T21:08:51.496Z,19.40
2022-08-16T21:11:17.725Z,19.30
2022-08-16T21:13:44.411Z,19.30
2022-08-16T21:16:11.084Z,19.40
2022-08-16T21:18:38.451Z,19.50
2022-08-16T21:21:05.164Z,19.50
2022-08-16T21:23:31.841Z,19.50
2022-08-16T21:25:59.801Z,19.50
2022-08-16T21:28:41.958Z,19.50
2022-08-16T21:31:10.174Z,19.40
2022-08-16T21:33:36.884Z,19.50
2022-08-16T21:36:04.962Z,19.30
2022-08-16T21:38:31.708Z,19.30
2022-08-16T21:40:58.582Z,19.30
2022-08-16T21:43:26.894Z,19.20
2022-08-16T21:45:55.578Z,19.10
2022-08-16T21:48:32.758Z,19.10
2022-08-16T21:51:02.227Z,19.10
2022-08-16T21:53:29.731Z,19.10
2022-08-16T21:55:57.823Z,19.20
2022-08-16T21:58:24.719Z,19.20
2022-08-16T22:00:51.773Z,19.20
2022-08-16T22:03:18.502Z,19.20
2022-08-16T22:05:46.160Z,19.30
2022-08-16T22:08:33.587Z,19.30
2022-08-16T22:11:06.346Z,19.50
2022-08-16T22:13:35.197Z,19.50
2022-08-16T22:16:07.361Z,19.60
2022-08-16T22:18:34.076Z,19.70
2022-08-16T22:21:00.785Z,19.80
2022-08-16T22:23:30.250Z,19.70
2022-08-16T22:25:57.663Z,19.70
2022-08-16T22:28:24.350Z,19.70
2022-08-16T22:30:51.223Z,19.70
2022-08-16T22:33:18.937Z,19.60
2022-08-16T22:35:46.826Z,19.50
2022-08-16T22:38:56.640Z,19.40
2022-08-16T22:41:02.023Z,19.20
2022-08-16T22:43:29.218Z,19.10
2022-08-16T22:45:56.066Z,18.90
2022-08-16T22:48:22.925Z,18.70
2022-08-16T22:50:50.106Z,18.50
2022-08-16T22:53:17.672Z,18.30
2022-08-16T22:55:44.482Z,18.10
2022-08-16T22:58:13.081Z,18.00
2022-08-16T23:00:39.951Z,17.80
2022-08-16T23:03:07.502Z,17.70
2022-08-16T23:05:34.989Z,17.70
2022-08-16T23:08:01.719Z,17.60
2022-08-16T23:10:28.610Z,17.50
2022-08-16T23:12:57.491Z,17.50
2022-08-16T23:15:26.135Z,17.50
2022-08-16T23:17:55.127Z,17.40
2022-08-16T23:20:23.271Z,17.40
2022-08-16T23:23:21.173Z,17.40
2022-08-16T23:25:39.054Z,17.40
2022-08-16T23:28:06.460Z,17.30
2022-08-16T23:30:36.026Z,17.20
2022-08-16T23:33:08.885Z,17.30
2022-08-16T23:35:44.833Z,17.40
2022-08-16T23:38:37.551Z,17.20
2022-08-16T23:41:00.505Z,17.10
2022-08-16T23:43:28.224Z,17.00
2022-08-16T23:45:56.385Z,16.90
2022-08-16T23:48:24.127Z,16.90
2022-08-16T23:50:51.803Z,16.80
2022-08-16T23:53:19.864Z,16.60
2022-08-16T23:55:47.983Z,16.50
2022-08-16T23:58:15.824Z,16.30
